Startpagina
METAR-TAF:

METAR-TAF

Vliegvelden :

Luchthaven Mo i Rana Rossvoll

Mo I Rana, Noorwegen

breedte: 66-22N, lengte: 014-18E, hoogte: 7 m

Actueel weer

Dit bericht is 1 uur en het 8 minuten geleden gemaakt, om 06:20 UTC
Wind 4 kt uit variabele richting
Temperatuur -7°C
Vochtigheid 73%
Druk 999 hPa
Zicht 10 km of meer
geen wolken onder 1500 m en geen cumulonimbus

METAR: ENRA 200620Z VRB04KT CAVOK M07/M11 Q0999

Tijdstip: 08:28 (07:28 UTC)

Verwachting

Dit bericht is 2 uur en het 28 minuten geleden gemaakt, om 05:00 UTC
Verwachting geldig van 20 om 06 UTC tot 20 om 15 UTC
Wind 8 kt uit het oosten
Zicht 10 km of meer
geen wolken onder 1500 m en geen cumulonimbus

TAF: ENRA 200500Z 2006/2015 10008KT CAVOK

Waarnemingen en weersverwachtingen van meer dan 4000 vliegvelden (METAR en TAF).

De beschikbare stations zijn de gele en rode punten op de kaart.

Ga met uw muis naar het station om de naam te zien.

Klik dan om waarnemingen en weersverwachtingen te zien.

kaart wijzigen: klik op de groene knoppen met een zwart kruis om in te zoomen, op de groene knop met een streepje om uit te zoomen of op de groene pijlen voor aangrenzende kaarten.


METAR-TAF: